createdAt,value
2023-02-23T00:00:36.320Z,41
2023-02-23T00:01:36.332Z,44
2023-02-23T00:02:36.329Z,46
2023-02-23T00:03:36.354Z,48
2023-02-23T00:04:36.313Z,41
2023-02-23T00:05:36.320Z,44
2023-02-23T00:06:36.402Z,43
2023-02-23T00:07:36.331Z,46
2023-02-23T00:08:36.341Z,44
2023-02-23T00:09:36.355Z,44
2023-02-23T00:10:36.323Z,44
2023-02-23T00:11:36.340Z,44
2023-02-23T00:12:36.327Z,44
2023-02-23T00:14:36.322Z,48
2023-02-23T00:15:36.326Z,44
2023-02-23T00:16:36.409Z,47
2023-02-23T00:17:36.314Z,45
2023-02-23T00:18:36.335Z,48
2023-02-23T00:19:36.336Z,44
2023-02-23T00:20:36.332Z,48
2023-02-23T00:21:36.330Z,47
2023-02-23T00:22:36.357Z,46
2023-02-23T00:23:36.358Z,50
2023-02-23T00:24:36.317Z,44
2023-02-23T00:25:36.318Z,47
2023-02-23T00:26:36.331Z,50
2023-02-23T00:27:36.404Z,46
2023-02-23T00:28:36.331Z,53
2023-02-23T00:29:36.332Z,49
2023-02-23T00:30:36.396Z,51
2023-02-23T00:31:36.429Z,46
2023-02-23T00:32:36.433Z,55
2023-02-23T00:33:36.341Z,50
2023-02-23T00:34:36.330Z,53
2023-02-23T00:35:36.336Z,49
2023-02-23T00:36:36.340Z,52
2023-02-23T00:37:36.333Z,50
2023-02-23T00:38:36.366Z,52
2023-02-23T00:39:36.359Z,52
2023-02-23T00:40:36.338Z,48
2023-02-23T00:41:36.337Z,53
2023-02-23T00:42:36.327Z,46
2023-02-23T00:43:36.342Z,52
2023-02-23T00:44:36.337Z,50
2023-02-23T00:45:36.341Z,54
2023-02-23T00:46:36.338Z,49
2023-02-23T00:47:36.334Z,51
2023-02-23T00:48:36.343Z,49
2023-02-23T00:49:36.340Z,50
2023-02-23T00:50:36.334Z,46
2023-02-23T00:51:36.336Z,50
2023-02-23T00:52:36.369Z,51
2023-02-23T00:53:36.347Z,53
2023-02-23T00:54:36.429Z,50
2023-02-23T00:55:36.359Z,48
2023-02-23T00:56:36.340Z,53
2023-02-23T00:57:36.400Z,48
2023-02-23T00:58:36.346Z,49
2023-02-23T01:00:36.350Z,49
2023-02-23T01:01:36.402Z,52
2023-02-23T01:02:36.431Z,48
2023-02-23T01:03:36.342Z,50
2023-02-23T01:04:36.419Z,47
2023-02-23T01:05:36.335Z,52
2023-02-23T01:06:36.344Z,49
2023-02-23T01:07:36.365Z,50
2023-02-23T01:08:36.338Z,46
2023-02-23T01:09:36.336Z,50
2023-02-23T01:10:36.334Z,47
2023-02-23T01:11:36.336Z,52
2023-02-23T01:12:36.376Z,46
2023-02-23T01:13:36.338Z,52
2023-02-23T01:14:36.339Z,47
2023-02-23T01:15:36.352Z,49
2023-02-23T01:16:36.334Z,47
2023-02-23T01:17:36.332Z,51
2023-02-23T01:18:36.326Z,47
2023-02-23T01:19:36.323Z,51
2023-02-23T01:20:36.332Z,48
2023-02-23T01:21:36.349Z,52
2023-02-23T01:22:36.336Z,48
2023-02-23T01:23:36.326Z,46
2023-02-23T01:24:36.331Z,50
2023-02-23T01:25:36.365Z,50
2023-02-23T01:26:36.345Z,52
2023-02-23T01:27:36.331Z,48
2023-02-23T01:28:36.335Z,47
2023-02-23T01:29:36.360Z,50
2023-02-23T01:30:36.360Z,47
2023-02-23T01:31:36.537Z,53
2023-02-23T01:32:36.356Z,48
2023-02-23T01:35:36.334Z,47
2023-02-23T01:36:36.344Z,50
2023-02-23T01:38:36.337Z,51
2023-02-23T01:39:36.339Z,51
2023-02-23T01:40:36.334Z,51
2023-02-23T01:41:36.413Z,52
2023-02-23T01:42:36.335Z,51
2023-02-23T01:43:36.336Z,51
2023-02-23T01:44:36.342Z,48
2023-02-23T01:46:36.503Z,52
2023-02-23T01:47:36.345Z,48
2023-02-23T01:48:36.338Z,51
2023-02-23T01:49:36.345Z,50
2023-02-23T01:50:36.333Z,56
2023-02-23T01:51:36.332Z,52
2023-02-23T01:52:36.343Z,53
2023-02-23T01:53:36.334Z,52
2023-02-23T01:54:36.446Z,51
2023-02-23T01:55:36.342Z,52
2023-02-23T01:56:36.342Z,50
2023-02-23T01:57:36.376Z,50
2023-02-23T01:58:36.352Z,55
2023-02-23T01:59:36.364Z,49
2023-02-23T02:00:36.340Z,51
2023-02-23T02:01:36.349Z,49
2023-02-23T02:02:36.333Z,52
2023-02-23T02:03:36.361Z,51
2023-02-23T02:04:36.374Z,46
2023-02-23T02:05:36.340Z,49
2023-02-23T02:07:36.352Z,50
2023-02-23T02:08:36.341Z,47
2023-02-23T02:09:36.335Z,50
2023-02-23T02:10:36.344Z,49
2023-02-23T02:11:36.339Z,51
2023-02-23T02:12:36.380Z,48
2023-02-23T02:14:36.372Z,47
2023-02-23T02:15:36.342Z,49
2023-02-23T02:16:36.352Z,55
2023-02-23T02:17:36.341Z,49
2023-02-23T02:18:36.354Z,52
2023-02-23T02:19:36.338Z,48
2023-02-23T02:20:36.347Z,49
2023-02-23T02:21:36.347Z,55
2023-02-23T02:22:36.341Z,50
2023-02-23T02:23:36.357Z,51
2023-02-23T02:24:36.397Z,55
2023-02-23T02:25:36.359Z,50
2023-02-23T02:26:36.348Z,55
2023-02-23T02:27:36.344Z,50
2023-02-23T02:28:36.356Z,53
2023-02-23T02:29:36.395Z,51
2023-02-23T02:30:36.440Z,55
2023-02-23T02:31:36.567Z,51
2023-02-23T02:32:36.350Z,53
2023-02-23T02:33:36.349Z,50
2023-02-23T02:34:36.380Z,51
2023-02-23T02:35:36.336Z,54
2023-02-23T02:36:36.354Z,49
2023-02-23T02:37:36.351Z,53
2023-02-23T02:38:36.343Z,50
2023-02-23T02:39:36.353Z,49
2023-02-23T02:40:36.354Z,51
2023-02-23T02:41:36.350Z,48
2023-02-23T02:42:36.346Z,54
2023-02-23T02:43:36.432Z,48
2023-02-23T02:44:36.357Z,53
2023-02-23T02:45:36.351Z,47
2023-02-23T02:46:36.346Z,47
2023-02-23T02:47:36.356Z,52
2023-02-23T02:48:36.354Z,48
2023-02-23T02:49:36.352Z,49
2023-02-23T02:50:36.352Z,49
2023-02-23T02:51:36.349Z,49
2023-02-23T02:52:36.355Z,47
2023-02-23T02:53:36.354Z,49
2023-02-23T02:54:36.350Z,51
2023-02-23T02:55:36.352Z,47
2023-02-23T02:56:36.376Z,52
2023-02-23T02:57:36.368Z,47
2023-02-23T02:58:36.350Z,52
2023-02-23T02:59:36.363Z,48
2023-02-23T03:00:36.357Z,49
2023-02-23T03:01:36.433Z,48
2023-02-23T03:02:36.359Z,51
2023-02-23T03:03:36.357Z,46
2023-02-23T03:04:36.348Z,51
2023-02-23T03:05:36.354Z,47
2023-02-23T03:06:36.372Z,46
2023-02-23T03:07:36.353Z,52
2023-02-23T03:08:36.361Z,47
2023-02-23T03:09:36.377Z,52
2023-02-23T03:10:36.359Z,52
2023-02-23T03:11:36.368Z,54
2023-02-23T03:12:36.364Z,49
2023-02-23T03:13:36.428Z,48
2023-02-23T03:14:36.397Z,49
2023-02-23T03:15:36.350Z,47
2023-02-23T03:16:36.382Z,53
2023-02-23T03:17:38.390Z,49
2023-02-23T03:18:36.357Z,48
2023-02-23T03:19:36.356Z,45
2023-02-23T03:20:36.370Z,48
2023-02-23T03:21:36.366Z,46
2023-02-23T03:22:36.358Z,45
2023-02-23T03:23:36.360Z,51
2023-02-23T03:24:36.357Z,46
2023-02-23T03:25:36.387Z,50
2023-02-23T03:26:36.363Z,48
2023-02-23T03:27:36.361Z,52
2023-02-23T03:28:36.359Z,56
2023-02-23T03:29:36.361Z,51
2023-02-23T03:30:36.403Z,58
2023-02-23T03:31:36.471Z,51
2023-02-23T03:32:36.404Z,57
2023-02-23T03:33:36.368Z,53
2023-02-23T03:34:36.354Z,54
2023-02-23T03:35:36.364Z,55
2023-02-23T03:36:36.365Z,54
2023-02-23T03:37:36.375Z,51
2023-02-23T03:38:36.358Z,55
2023-02-23T03:39:36.361Z,51
2023-02-23T03:40:36.361Z,52
2023-02-23T03:41:36.382Z,55
2023-02-23T03:42:36.358Z,50
2023-02-23T03:43:36.362Z,55
2023-02-23T03:44:36.363Z,49
2023-02-23T03:45:36.471Z,50
2023-02-23T03:46:36.365Z,57
2023-02-23T03:47:36.363Z,52
2023-02-23T03:48:36.362Z,53
2023-02-23T03:49:36.368Z,57
2023-02-23T03:50:36.386Z,50
2023-02-23T03:51:36.363Z,58
2023-02-23T03:52:36.377Z,53
2023-02-23T03:53:36.366Z,55
2023-02-23T03:54:36.365Z,51
2023-02-23T03:55:36.372Z,52
2023-02-23T03:56:36.358Z,58
2023-02-23T03:57:36.395Z,53
2023-02-23T03:58:36.361Z,59
2023-02-23T03:59:36.361Z,53
2023-02-23T04:00:36.363Z,60
2023-02-23T04:01:36.407Z,55
2023-02-23T04:02:36.365Z,55
2023-02-23T04:03:36.412Z,55
2023-02-23T04:04:36.367Z,59
2023-02-23T04:05:36.375Z,56
2023-02-23T04:06:36.359Z,55
2023-02-23T04:07:36.368Z,54
2023-02-23T04:08:36.363Z,56
2023-02-23T04:09:36.383Z,58
2023-02-23T04:10:36.362Z,54
2023-02-23T04:11:36.374Z,58
2023-02-23T04:12:36.363Z,54
2023-02-23T04:14:36.429Z,52
2023-02-23T04:15:36.371Z,57
2023-02-23T04:16:36.444Z,51
2023-02-23T04:17:36.369Z,56
2023-02-23T04:18:36.364Z,55
2023-02-23T04:19:36.368Z,54
2023-02-23T04:20:36.413Z,58
2023-02-23T04:21:36.369Z,54
2023-02-23T04:22:36.367Z,60
2023-02-23T04:23:36.363Z,53
2023-02-23T04:24:36.367Z,58
2023-02-23T04:25:36.367Z,53
2023-02-23T04:26:36.370Z,53
2023-02-23T04:27:36.415Z,59
2023-02-23T04:28:36.359Z,53
2023-02-23T04:29:36.367Z,58
2023-02-23T04:30:36.392Z,54
2023-02-23T04:31:36.542Z,55
2023-02-23T04:32:36.565Z,55
2023-02-23T04:33:36.377Z,53
2023-02-23T04:34:36.377Z,54
2023-02-23T04:35:36.373Z,56
2023-02-23T04:36:36.383Z,53
2023-02-23T04:37:36.444Z,58
2023-02-23T04:38:36.375Z,54
2023-02-23T04:39:36.379Z,57
2023-02-23T04:40:36.372Z,53
2023-02-23T04:41:36.375Z,57
2023-02-23T04:42:36.378Z,53
2023-02-23T04:43:36.383Z,54
2023-02-23T04:44:36.380Z,52
2023-02-23T04:45:36.551Z,54
2023-02-23T04:46:36.397Z,52
2023-02-23T04:47:36.393Z,56
2023-02-23T04:48:36.381Z,51
2023-02-23T04:49:36.373Z,55
2023-02-23T04:50:36.380Z,52
2023-02-23T04:51:36.370Z,57
2023-02-23T04:52:36.375Z,53
2023-02-23T04:53:36.398Z,58
2023-02-23T04:54:36.396Z,54
2023-02-23T04:55:36.383Z,62
2023-02-23T04:56:36.380Z,56
2023-02-23T04:57:36.371Z,60
2023-02-23T04:58:36.391Z,55
2023-02-23T04:59:36.396Z,60
2023-02-23T05:01:36.439Z,57
2023-02-23T05:02:36.582Z,57
2023-02-23T05:03:36.576Z,52
2023-02-23T05:04:36.547Z,57
2023-02-23T05:06:36.461Z,57
2023-02-23T05:07:36.491Z,54
2023-02-23T05:08:36.433Z,52
2023-02-23T05:09:36.445Z,58
2023-02-23T05:10:38.148Z,53
2023-02-23T05:11:36.426Z,57
2023-02-23T05:12:36.431Z,54
2023-02-23T05:13:36.426Z,59
2023-02-23T05:14:36.436Z,55
2023-02-23T05:15:36.464Z,59
2023-02-23T05:16:36.425Z,55
2023-02-23T05:17:36.425Z,61
2023-02-23T05:19:36.429Z,57
2023-02-23T05:21:36.429Z,60
2023-02-23T05:22:36.427Z,61
2023-02-23T05:23:36.436Z,55
2023-02-23T05:24:36.421Z,62
2023-02-23T05:25:36.424Z,57
2023-02-23T05:26:36.439Z,57
2023-02-23T05:27:36.436Z,59
2023-02-23T05:28:36.445Z,58
2023-02-23T05:29:36.431Z,60
2023-02-23T05:31:36.547Z,55
2023-02-23T05:32:36.457Z,58
2023-02-23T05:33:36.434Z,54
2023-02-23T05:34:36.430Z,52
2023-02-23T05:35:36.435Z,56
2023-02-23T05:36:36.436Z,53
2023-02-23T05:37:36.430Z,54
2023-02-23T05:38:36.433Z,56
2023-02-23T05:39:36.430Z,52
2023-02-23T05:40:36.448Z,59
2023-02-23T05:41:36.441Z,59
2023-02-23T05:42:36.431Z,57
2023-02-23T05:43:36.425Z,63
2023-02-23T05:44:36.430Z,57
2023-02-23T05:45:36.433Z,61
2023-02-23T05:46:36.521Z,56
2023-02-23T05:47:36.438Z,54
2023-02-23T05:48:36.469Z,55
2023-02-23T05:50:36.427Z,53
2023-02-23T05:51:36.428Z,59
2023-02-23T05:52:36.427Z,54
2023-02-23T05:53:36.422Z,55
2023-02-23T05:54:36.462Z,58
2023-02-23T05:55:36.425Z,50
2023-02-23T05:56:36.443Z,56
2023-02-23T05:57:36.438Z,55
2023-02-23T05:58:36.437Z,59
2023-02-23T05:59:36.431Z,53
2023-02-23T06:00:36.436Z,59
2023-02-23T06:01:36.445Z,54
2023-02-23T06:02:36.568Z,63
2023-02-23T06:03:36.462Z,56
2023-02-23T06:04:36.438Z,54
2023-02-23T06:05:36.441Z,61
2023-02-23T06:06:36.433Z,56
2023-02-23T06:07:36.439Z,58
2023-02-23T06:08:36.439Z,50
2023-02-23T06:09:36.452Z,56
2023-02-23T06:10:36.439Z,54
2023-02-23T06:11:36.451Z,55
2023-02-23T06:13:36.440Z,55
2023-02-23T06:14:36.746Z,61
2023-02-23T06:15:36.440Z,59
2023-02-23T06:16:36.574Z,57
2023-02-23T06:17:36.436Z,56
2023-02-23T06:18:36.441Z,64
2023-02-23T06:19:36.462Z,60
2023-02-23T06:20:38.190Z,63
2023-02-23T06:21:36.435Z,55
2023-02-23T06:22:36.439Z,66
2023-02-23T06:23:36.438Z,56
2023-02-23T06:24:36.441Z,58
2023-02-23T06:25:36.440Z,53
2023-02-23T06:26:36.439Z,59
2023-02-23T06:27:36.439Z,56
2023-02-23T06:28:36.439Z,55
2023-02-23T06:29:36.438Z,62
2023-02-23T06:30:36.496Z,60
2023-02-23T06:32:36.492Z,65
2023-02-23T06:33:36.437Z,58
2023-02-23T06:34:36.441Z,65
2023-02-23T06:35:36.454Z,62
2023-02-23T06:36:36.440Z,64
2023-02-23T06:37:36.448Z,65
2023-02-23T06:38:36.445Z,64
2023-02-23T06:39:36.442Z,66
2023-02-23T06:40:36.443Z,60
2023-02-23T06:41:36.439Z,66
2023-02-23T06:42:36.442Z,62
2023-02-23T06:43:36.459Z,66
2023-02-23T06:44:36.447Z,58
2023-02-23T06:45:36.442Z,62
2023-02-23T06:46:36.544Z,65
2023-02-23T06:47:36.446Z,62
2023-02-23T06:48:36.449Z,60
2023-02-23T06:49:36.443Z,65
2023-02-23T06:50:36.447Z,59
2023-02-23T06:51:36.492Z,59
2023-02-23T06:52:36.449Z,59
2023-02-23T06:53:36.442Z,62
2023-02-23T06:54:36.441Z,60
2023-02-23T06:55:36.448Z,62
2023-02-23T06:56:36.442Z,61
2023-02-23T06:57:36.453Z,63
2023-02-23T06:58:36.480Z,65
2023-02-23T06:59:36.448Z,70
2023-02-23T07:00:36.447Z,65
2023-02-23T07:01:36.454Z,65
2023-02-23T07:02:36.439Z,65
2023-02-23T07:03:36.463Z,73
2023-02-23T07:04:36.444Z,68
2023-02-23T07:05:36.442Z,68
2023-02-23T07:06:36.444Z,66
2023-02-23T07:07:36.451Z,67
2023-02-23T07:08:36.444Z,66
2023-02-23T07:09:36.444Z,73
2023-02-23T07:10:36.447Z,65
2023-02-23T07:11:36.439Z,65
2023-02-23T07:12:36.446Z,67
2023-02-23T07:13:36.447Z,67
2023-02-23T07:14:36.442Z,70
2023-02-23T07:15:36.459Z,64
2023-02-23T07:16:36.510Z,64
2023-02-23T07:17:36.449Z,63
2023-02-23T07:18:36.477Z,64
2023-02-23T07:19:36.444Z,62
2023-02-23T07:20:36.454Z,63
2023-02-23T07:21:36.454Z,59
2023-02-23T07:22:37.407Z,67
2023-02-23T07:23:36.451Z,64
2023-02-23T07:24:36.454Z,63
2023-02-23T07:25:36.454Z,69
2023-02-23T07:26:36.440Z,62
2023-02-23T07:27:36.441Z,62
2023-02-23T07:28:36.446Z,62
2023-02-23T07:30:36.502Z,62
2023-02-23T07:31:36.615Z,61
2023-02-23T07:32:36.562Z,63
2023-02-23T07:33:36.449Z,64
2023-02-23T07:34:36.451Z,62
2023-02-23T07:35:36.458Z,63
2023-02-23T07:36:36.462Z,66
2023-02-23T07:37:36.443Z,64
2023-02-23T07:38:36.452Z,75
2023-02-23T07:39:36.449Z,65
2023-02-23T07:40:36.452Z,69
2023-02-23T07:41:36.454Z,66
2023-02-23T07:42:36.448Z,72
2023-02-23T07:43:36.457Z,67
2023-02-23T07:45:36.501Z,66
2023-02-23T07:46:36.464Z,63
2023-02-23T07:47:36.456Z,62
2023-02-23T07:49:36.448Z,64
2023-02-23T07:50:36.484Z,65
2023-02-23T07:51:36.452Z,65
2023-02-23T07:52:36.457Z,63
2023-02-23T07:53:36.486Z,60
2023-02-23T07:54:36.465Z,62
2023-02-23T07:55:36.461Z,62
2023-02-23T07:56:36.460Z,65
2023-02-23T07:57:36.449Z,63
2023-02-23T07:58:36.455Z,66
2023-02-23T07:59:36.463Z,63
2023-02-23T08:00:36.459Z,62
2023-02-23T08:01:36.456Z,64
2023-02-23T08:02:36.455Z,62
2023-02-23T08:03:36.456Z,65
2023-02-23T08:04:36.530Z,66
2023-02-23T08:05:36.458Z,65
2023-02-23T08:06:36.452Z,63
2023-02-23T08:07:36.454Z,68
2023-02-23T08:08:36.457Z,64
2023-02-23T08:09:36.488Z,64
2023-02-23T08:10:36.457Z,65
2023-02-23T08:11:36.704Z,64
2023-02-23T08:12:36.513Z,62
2023-02-23T08:13:36.458Z,63
2023-02-23T08:14:36.456Z,66
2023-02-23T08:15:36.461Z,60
2023-02-23T08:16:36.474Z,64
2023-02-23T08:17:36.453Z,61
2023-02-23T08:18:36.504Z,68
2023-02-23T08:19:36.471Z,62
2023-02-23T08:20:36.467Z,60
2023-02-23T08:21:36.450Z,62
2023-02-23T08:22:48.511Z,65
2023-02-23T08:23:36.457Z,62
2023-02-23T08:24:36.490Z,63
2023-02-23T08:25:36.461Z,64
2023-02-23T08:26:36.472Z,60
2023-02-23T08:27:36.459Z,64
2023-02-23T08:28:36.456Z,64
2023-02-23T08:29:36.463Z,64
2023-02-23T08:30:36.666Z,62
2023-02-23T08:31:36.604Z,61
2023-02-23T08:32:36.521Z,62
2023-02-23T08:33:36.463Z,61
2023-02-23T08:34:36.463Z,62
2023-02-23T08:35:36.464Z,60
2023-02-23T08:36:36.455Z,58
2023-02-23T08:37:36.459Z,67
2023-02-23T08:38:36.462Z,59
2023-02-23T08:39:36.454Z,61
2023-02-23T08:40:36.472Z,65
2023-02-23T08:41:36.461Z,57
2023-02-23T08:42:36.463Z,58
2023-02-23T08:43:36.456Z,59
2023-02-23T08:44:36.462Z,60
2023-02-23T08:45:36.465Z,57
2023-02-23T08:46:36.479Z,57
2023-02-23T08:47:36.466Z,60
2023-02-23T08:48:36.462Z,57
2023-02-23T08:49:36.466Z,56
2023-02-23T08:50:36.466Z,59
2023-02-23T08:51:36.454Z,58
2023-02-23T08:52:36.460Z,61
2023-02-23T08:53:36.564Z,55
2023-02-23T08:54:36.521Z,54
2023-02-23T08:55:36.510Z,59
2023-02-23T08:56:36.461Z,53
2023-02-23T08:57:36.478Z,53
2023-02-23T08:58:36.459Z,55
2023-02-23T08:59:36.469Z,53
2023-02-23T09:00:36.462Z,57
2023-02-23T09:01:36.490Z,49
2023-02-23T09:02:36.459Z,55
2023-02-23T09:03:38.227Z,52
2023-02-23T09:04:36.468Z,52
2023-02-23T09:05:36.470Z,53
2023-02-23T09:06:36.461Z,52
2023-02-23T09:07:36.463Z,52
2023-02-23T09:08:36.461Z,49
2023-02-23T09:09:36.457Z,50
2023-02-23T09:10:36.454Z,53
2023-02-23T09:12:36.461Z,48
2023-02-23T09:13:36.468Z,48
2023-02-23T09:14:36.491Z,52
2023-02-23T09:15:36.506Z,47
2023-02-23T09:16:36.473Z,49
2023-02-23T09:17:36.465Z,51
2023-02-23T09:18:36.465Z,52
2023-02-23T09:19:36.464Z,51
2023-02-23T09:20:36.465Z,50
2023-02-23T09:21:36.459Z,52
2023-02-23T09:23:36.474Z,51
2023-02-23T09:24:36.460Z,50
2023-02-23T09:25:36.458Z,56
2023-02-23T09:26:36.488Z,53
2023-02-23T09:27:36.460Z,52
2023-02-23T09:28:36.462Z,54
2023-02-23T09:29:36.463Z,52
2023-02-23T09:30:36.502Z,50
2023-02-23T09:31:36.600Z,50
2023-02-23T09:32:36.553Z,47
2023-02-23T09:33:36.454Z,47
2023-02-23T09:34:37.597Z,48
2023-02-23T09:35:36.488Z,45
2023-02-23T09:36:36.466Z,45
2023-02-23T09:37:36.466Z,47
2023-02-23T09:38:36.467Z,46
2023-02-23T09:39:38.907Z,45
2023-02-23T09:40:36.463Z,46
2023-02-23T09:41:36.462Z,45
2023-02-23T09:42:36.467Z,47
2023-02-23T09:43:36.465Z,44
2023-02-23T09:44:36.476Z,46
2023-02-23T09:45:36.462Z,45
2023-02-23T09:46:36.458Z,43
2023-02-23T09:47:36.462Z,43
2023-02-23T09:48:36.465Z,42
2023-02-23T09:49:36.457Z,41
2023-02-23T09:50:36.476Z,43
2023-02-23T09:51:36.472Z,44
2023-02-23T09:52:36.715Z,43
2023-02-23T09:53:36.465Z,45
2023-02-23T09:54:36.463Z,44
2023-02-23T09:55:36.470Z,44
2023-02-23T09:56:36.496Z,46
2023-02-23T09:57:36.509Z,42
2023-02-23T09:58:36.470Z,44
2023-02-23T09:59:36.469Z,44
2023-02-23T10:00:36.473Z,44
2023-02-23T10:01:36.520Z,45
2023-02-23T10:02:36.481Z,40
2023-02-23T10:03:36.471Z,40
2023-02-23T10:04:36.533Z,41
2023-02-23T10:05:36.474Z,43
2023-02-23T10:06:36.474Z,41
2023-02-23T10:07:36.470Z,41
2023-02-23T10:09:36.482Z,41
2023-02-23T10:10:36.487Z,42
2023-02-23T10:11:38.427Z,42
2023-02-23T10:12:36.481Z,41
2023-02-23T10:13:36.479Z,47
2023-02-23T10:14:36.486Z,44
2023-02-23T10:15:36.526Z,44
2023-02-23T10:16:36.489Z,42
2023-02-23T10:17:36.508Z,43
2023-02-23T10:18:46.503Z,45
2023-02-23T10:19:36.473Z,44
2023-02-23T10:20:36.476Z,48
2023-02-23T10:21:36.484Z,43
2023-02-23T10:22:36.487Z,44
2023-02-23T10:23:36.479Z,43
2023-02-23T10:24:36.485Z,44
2023-02-23T10:25:36.472Z,45
2023-02-23T10:26:36.480Z,48
2023-02-23T10:27:36.526Z,44
2023-02-23T10:28:36.506Z,44
2023-02-23T10:29:36.483Z,45
2023-02-23T10:30:36.516Z,45
2023-02-23T10:31:36.682Z,44
2023-02-23T10:32:36.542Z,46
2023-02-23T10:33:36.485Z,47
2023-02-23T10:34:37.247Z,44
2023-02-23T10:35:36.519Z,44
2023-02-23T10:36:36.483Z,47
2023-02-23T10:37:36.511Z,43
2023-02-23T10:38:36.476Z,46
2023-02-23T10:39:36.471Z,40
2023-02-23T10:40:36.481Z,44
2023-02-23T10:41:36.489Z,43
2023-02-23T10:42:36.477Z,44
2023-02-23T10:43:36.469Z,44
2023-02-23T10:44:36.483Z,40
2023-02-23T10:45:36.477Z,44
2023-02-23T10:46:36.551Z,41
2023-02-23T10:47:36.491Z,43
2023-02-23T10:48:36.540Z,41
2023-02-23T10:49:36.488Z,46
2023-02-23T10:50:36.486Z,40
2023-02-23T10:51:36.479Z,41
2023-02-23T10:52:41.622Z,44
2023-02-23T10:53:36.480Z,41
2023-02-23T10:54:36.481Z,39
2023-02-23T10:55:36.511Z,40
2023-02-23T10:56:36.480Z,38
2023-02-23T10:57:38.092Z,38
2023-02-23T10:58:36.512Z,37
2023-02-23T10:59:36.508Z,38
2023-02-23T11:00:36.486Z,36
2023-02-23T11:01:36.564Z,40
2023-02-23T11:02:36.668Z,35
2023-02-23T11:03:36.484Z,36
2023-02-23T11:04:36.645Z,37
2023-02-23T11:05:36.485Z,38
2023-02-23T11:06:36.486Z,36
2023-02-23T11:07:36.655Z,37
2023-02-23T11:08:36.478Z,35
2023-02-23T11:09:46.454Z,37
2023-02-23T11:10:36.501Z,37
2023-02-23T11:11:36.482Z,38
2023-02-23T11:12:36.475Z,35
2023-02-23T11:13:36.480Z,38
2023-02-23T11:14:36.483Z,41
2023-02-23T11:15:49.781Z,35
2023-02-23T11:16:36.635Z,38
2023-02-23T11:17:36.483Z,38
2023-02-23T11:18:36.475Z,37
2023-02-23T11:19:36.477Z,38
2023-02-23T11:20:36.480Z,35
2023-02-23T11:21:36.497Z,37
2023-02-23T11:22:36.502Z,37
2023-02-23T11:23:36.483Z,36
2023-02-23T11:24:36.476Z,34
2023-02-23T11:25:36.488Z,37
2023-02-23T11:26:36.529Z,36
2023-02-23T11:27:36.479Z,35
2023-02-23T11:28:36.484Z,33
2023-02-23T11:29:36.477Z,34
2023-02-23T11:30:36.674Z,33
2023-02-23T11:31:36.585Z,33
2023-02-23T11:32:36.525Z,36
2023-02-23T11:33:36.486Z,34
2023-02-23T11:34:36.534Z,33
2023-02-23T11:35:36.489Z,33
2023-02-23T11:36:36.485Z,35
2023-02-23T11:37:36.479Z,33
2023-02-23T11:38:36.481Z,34
2023-02-23T11:39:36.487Z,37
2023-02-23T11:40:36.491Z,34
2023-02-23T11:41:36.479Z,32
2023-02-23T11:42:36.557Z,33
2023-02-23T11:43:36.482Z,34
2023-02-23T11:44:36.484Z,31
2023-02-23T11:45:36.489Z,33
2023-02-23T11:46:36.524Z,35
2023-02-23T11:47:36.482Z,30
2023-02-23T11:48:36.482Z,31
2023-02-23T11:49:36.477Z,32
2023-02-23T11:50:36.518Z,29
2023-02-23T11:51:36.490Z,31
2023-02-23T11:52:36.560Z,29
2023-02-23T11:53:36.479Z,29
2023-02-23T11:54:36.480Z,30
2023-02-23T11:55:36.485Z,28
2023-02-23T11:56:36.491Z,27
2023-02-23T11:57:36.487Z,30
2023-02-23T11:58:36.480Z,28
2023-02-23T11:59:36.486Z,29
2023-02-23T12:00:36.506Z,30
2023-02-23T12:01:36.529Z,29
2023-02-23T12:02:36.503Z,28
2023-02-23T12:03:36.479Z,29
2023-02-23T12:04:36.550Z,30
2023-02-23T12:05:36.484Z,29
2023-02-23T12:06:36.520Z,29
2023-02-23T12:07:36.492Z,29
2023-02-23T12:08:36.490Z,28
2023-02-23T12:09:36.490Z,28
2023-02-23T12:12:36.497Z,29
2023-02-23T12:13:36.490Z,30
2023-02-23T12:14:36.478Z,29
2023-02-23T12:15:36.505Z,30
2023-02-23T12:16:36.665Z,31
2023-02-23T12:17:36.497Z,34
2023-02-23T12:18:36.502Z,31
2023-02-23T12:19:36.489Z,30
2023-02-23T12:20:36.503Z,32
2023-02-23T12:21:36.497Z,33
2023-02-23T12:22:36.493Z,32
2023-02-23T12:23:36.497Z,32
2023-02-23T12:24:36.492Z,32
2023-02-23T12:25:36.513Z,31
2023-02-23T12:26:36.504Z,32
2023-02-23T12:27:36.497Z,32
2023-02-23T12:28:36.541Z,33
2023-02-23T12:29:36.487Z,32
2023-02-23T12:30:36.527Z,33
2023-02-23T12:31:36.631Z,32
2023-02-23T12:32:36.643Z,33
2023-02-23T12:33:36.487Z,32
2023-02-23T12:34:36.516Z,31
2023-02-23T12:35:36.511Z,32
2023-02-23T12:36:36.514Z,32
2023-02-23T12:37:36.493Z,32
2023-02-23T12:38:36.493Z,35
2023-02-23T12:39:36.509Z,31
2023-02-23T12:40:36.489Z,31
2023-02-23T12:41:36.503Z,32
2023-02-23T12:43:36.484Z,31
2023-02-23T12:44:36.544Z,31
2023-02-23T12:45:36.602Z,33
2023-02-23T12:46:36.489Z,32
2023-02-23T12:47:36.502Z,36
2023-02-23T12:48:36.492Z,33
2023-02-23T12:49:36.499Z,33
2023-02-23T12:50:36.498Z,33
2023-02-23T12:51:36.486Z,31
2023-02-23T12:52:36.484Z,32
2023-02-23T12:53:36.519Z,30
2023-02-23T12:54:36.481Z,34
2023-02-23T12:55:36.489Z,33
2023-02-23T12:56:36.491Z,33
2023-02-23T12:58:36.506Z,31
2023-02-23T12:59:36.494Z,32
2023-02-23T13:00:36.503Z,31
2023-02-23T13:01:36.530Z,29
2023-02-23T13:02:36.583Z,31
2023-02-23T13:04:36.499Z,29
2023-02-23T13:05:36.514Z,29
2023-02-23T13:06:36.502Z,29
2023-02-23T13:07:36.506Z,30
2023-02-23T13:08:36.501Z,29
2023-02-23T13:09:36.506Z,29
2023-02-23T13:10:36.502Z,28
2023-02-23T13:11:36.510Z,30
2023-02-23T13:12:36.508Z,28
2023-02-23T13:13:36.513Z,29
2023-02-23T13:14:36.497Z,27
2023-02-23T13:15:36.501Z,29
2023-02-23T13:16:36.527Z,28
2023-02-23T13:17:36.490Z,29
2023-02-23T13:18:36.502Z,28
2023-02-23T13:19:36.501Z,27
2023-02-23T13:20:36.499Z,29
2023-02-23T13:21:36.515Z,27
2023-02-23T13:22:36.500Z,27
2023-02-23T13:23:36.502Z,27
2023-02-23T13:24:36.534Z,28
2023-02-23T13:25:36.497Z,28
2023-02-23T13:26:36.496Z,28
2023-02-23T13:27:36.504Z,27
2023-02-23T13:28:36.502Z,30
2023-02-23T13:29:36.514Z,25
2023-02-23T13:30:36.596Z,29
2023-02-23T13:32:36.524Z,27
2023-02-23T13:33:43.946Z,29
2023-02-23T13:34:36.544Z,26
2023-02-23T13:35:36.500Z,28
2023-02-23T13:36:36.530Z,26
2023-02-23T13:37:36.522Z,28
2023-02-23T13:38:36.496Z,25
2023-02-23T13:40:36.510Z,26
2023-02-23T13:41:36.498Z,27
2023-02-23T13:42:36.496Z,24
2023-02-23T13:43:36.506Z,24
2023-02-23T13:44:36.500Z,24
2023-02-23T13:45:36.502Z,23
2023-02-23T13:46:36.505Z,25
2023-02-23T13:47:36.497Z,25
2023-02-23T13:48:44.473Z,25
2023-02-23T13:49:36.507Z,22
2023-02-23T13:50:36.508Z,24
2023-02-23T13:51:36.500Z,23
2023-02-23T13:52:36.498Z,24
2023-02-23T13:53:36.494Z,23
2023-02-23T13:54:36.508Z,21
2023-02-23T13:55:48.330Z,22
2023-02-23T13:56:36.525Z,22
2023-02-23T13:57:36.492Z,23
2023-02-23T13:58:36.507Z,22
2023-02-23T13:59:36.596Z,24
2023-02-23T14:00:36.528Z,21
2023-02-23T14:01:36.663Z,22
2023-02-23T14:02:36.659Z,22
2023-02-23T14:03:36.631Z,22
2023-02-23T14:04:36.498Z,22
2023-02-23T14:05:36.575Z,22
2023-02-23T14:06:36.502Z,21
2023-02-23T14:07:36.524Z,24
2023-02-23T14:08:36.495Z,22
2023-02-23T14:09:36.510Z,22
2023-02-23T14:10:36.495Z,24
2023-02-23T14:11:36.504Z,22
2023-02-23T14:12:36.536Z,22
2023-02-23T14:13:36.505Z,23
2023-02-23T14:14:36.509Z,23
2023-02-23T14:15:36.502Z,22
2023-02-23T14:16:36.531Z,25
2023-02-23T14:17:36.501Z,21
2023-02-23T14:18:36.524Z,23
2023-02-23T14:19:36.506Z,23
2023-02-23T14:20:36.501Z,23
2023-02-23T14:21:36.506Z,22
2023-02-23T14:22:36.511Z,23
2023-02-23T14:23:36.511Z,22
2023-02-23T14:24:36.512Z,21
2023-02-23T14:25:36.508Z,24
2023-02-23T14:26:36.512Z,21
2023-02-23T14:27:41.616Z,22
2023-02-23T14:28:36.517Z,22
2023-02-23T14:29:36.507Z,22
2023-02-23T14:30:36.558Z,22
2023-02-23T14:31:36.743Z,21
2023-02-23T14:32:36.743Z,22
2023-02-23T14:33:36.521Z,24
2023-02-23T14:34:36.514Z,26
2023-02-23T14:35:36.525Z,22
2023-02-23T14:36:36.548Z,25
2023-02-23T14:37:36.511Z,22
2023-02-23T14:38:47.465Z,24
2023-02-23T14:40:36.572Z,24
2023-02-23T14:41:36.507Z,24
2023-02-23T14:42:36.510Z,24
2023-02-23T14:43:36.516Z,24
2023-02-23T14:44:36.524Z,23
2023-02-23T14:45:36.512Z,25
2023-02-23T14:46:36.616Z,24